Holloman Air Force Base


Codes: KHMN/HMN
Name: Holloman Air Force Base
City: Alamogordo
Country: United States
Elevation: 4093 ft.
Website:
Wikipedia:

Photos at Holloman Air Force Base


   Photos courtesy of SpottingLog. You can add your own sightings and photos by signing up for a free trial today.



No photos found.

Weather at Holloman Air Force Base


Time (UTC)DescriptionTempratureWindCloud coverageVisibilityPressureHumidity
23-May-2024 21:00Clear Sky29°C20 mph, SW0%10000m1011hPa4%
24-May-2024 00:00Clear Sky30°C20 mph, SW0%10000m1007hPa3%
24-May-2024 03:00Clear Sky22°C4 mph, SW1%10000m1005hPa7%
24-May-2024 06:00Scattered Clouds20°C7 mph, S25%10000m1007hPa9%
24-May-2024 09:00Overcast Clouds18°C2 mph, NW87%10000m1008hPa11%
24-May-2024 12:00Broken Clouds16°C2 mph, W80%10000m1008hPa15%
24-May-2024 15:00Few Clouds22°C7 mph, S24%10000m1010hPa11%
24-May-2024 18:00Few Clouds27°C2 mph, S12%10000m1009hPa8%
24-May-2024 21:00Clear Sky30°C2 mph, SW0%10000m1005hPa6%
25-May-2024 00:00Clear Sky31°C16 mph, SW3%10000m1004hPa5%
25-May-2024 03:00Scattered Clouds24°C9 mph, SW31%10000m1005hPa8%
25-May-2024 06:00Broken Clouds23°C11 mph, S53%10000m1006hPa8%
25-May-2024 09:00Broken Clouds20°C11 mph, SE72%10000m1007hPa11%
25-May-2024 12:00Scattered Clouds18°C11 mph, SE39%10000m1008hPa13%
25-May-2024 15:00Clear Sky22°C9 mph, S6%10000m1009hPa14%
25-May-2024 18:00Clear Sky27°C11 mph, SW7%10000m1008hPa10%
25-May-2024 21:00Broken Clouds31°C20 mph, W59%10000m1004hPa6%
26-May-2024 00:00Broken Clouds31°C25 mph, W76%10000m1003hPa7%
26-May-2024 03:00Few Clouds24°C11 mph, W19%10000m1006hPa12%
26-May-2024 06:00Clear Sky20°C0 mph, NW9%10000m1009hPa18%
26-May-2024 09:00Clear Sky18°C7 mph, SW0%10000m1009hPa22%
26-May-2024 12:00Clear Sky16°C2 mph, SE0%10000m1010hPa25%
26-May-2024 15:00Clear Sky22°C2 mph, SW0%10000m1011hPa19%
26-May-2024 18:00Clear Sky26°C2 mph, SW0%10000m1010hPa13%
26-May-2024 21:00Clear Sky30°C2 mph, N0%10000m1007hPa8%
27-May-2024 00:00Clear Sky32°C20 mph, SW0%10000m1005hPa7%
27-May-2024 03:00Clear Sky25°C13 mph, SW0%10000m1008hPa11%
27-May-2024 06:00Clear Sky22°C9 mph, E0%10000m1010hPa15%
27-May-2024 09:00Clear Sky20°C4 mph, SE0%10000m1010hPa18%
27-May-2024 12:00Clear Sky18°C4 mph, SE0%10000m1012hPa20%
27-May-2024 15:00Clear Sky24°C4 mph, SW0%10000m1014hPa14%
27-May-2024 18:00Clear Sky29°C4 mph, SW0%10000m1012hPa11%
27-May-2024 21:00Clear Sky33°C4 mph, S0%10000m1009hPa6%
28-May-2024 00:00Clear Sky33°C7 mph, W0%10000m1008hPa5%
28-May-2024 03:00Broken Clouds26°C2 mph, SE55%10000m1009hPa8%
28-May-2024 06:00Broken Clouds24°C7 mph, SE77%10000m1011hPa9%
28-May-2024 09:00Broken Clouds22°C7 mph, SE73%10000m1011hPa9%
28-May-2024 12:00Overcast Clouds21°C13 mph, S88%10000m1013hPa28%
28-May-2024 15:00Few Clouds27°C13 mph, S13%10000m1014hPa21%
28-May-2024 18:00Clear Sky32°C13 mph, S7%10000m1012hPa11%